sensor_id;sensor_type;location;lat;lon;timestamp;pressure;altitude;pressure_sealevel;temperature;humidity
58072;BME280;60383;46.626;18.866;2023-07-29T00:00:36;99971.84;;;22.65;76.76
58072;BME280;60383;46.626;18.866;2023-07-29T00:03:02;99980.56;;;22.69;77.40
58072;BME280;60383;46.626;18.866;2023-07-29T00:05:27;99969.41;;;22.69;77.54
58072;BME280;60383;46.626;18.866;2023-07-29T00:07:53;99966.63;;;22.69;77.29
58072;BME280;60383;46.626;18.866;2023-07-29T00:10:18;99969.16;;;22.71;77.39
58072;BME280;60383;46.626;18.866;2023-07-29T00:12:44;99962.66;;;22.65;78.45
58072;BME280;60383;46.626;18.866;2023-07-29T00:15:10;99971.50;;;22.62;79.56
58072;BME280;60383;46.626;18.866;2023-07-29T00:17:36;99959.91;;;22.53;79.89
58072;BME280;60383;46.626;18.866;2023-07-29T00:20:02;99959.28;;;22.51;79.02
58072;BME280;60383;46.626;18.866;2023-07-29T00:22:28;99959.91;;;22.53;78.40
58072;BME280;60383;46.626;18.866;2023-07-29T00:24:54;99972.50;;;22.56;77.93
58072;BME280;60383;46.626;18.866;2023-07-29T00:27:25;99968.38;;;22.58;77.11
58072;BME280;60383;46.626;18.866;2023-07-29T00:29:51;99969.00;;;22.48;77.88
58072;BME280;60383;46.626;18.866;2023-07-29T00:32:17;99971.63;;;22.55;77.64
58072;BME280;60383;46.626;18.866;2023-07-29T00:34:43;99967.31;;;22.47;77.54
58072;BME280;60383;46.626;18.866;2023-07-29T00:37:09;99962.22;;;22.32;78.65
58072;BME280;60383;46.626;18.866;2023-07-29T00:39:36;99958.34;;;22.33;79.10
58072;BME280;60383;46.626;18.866;2023-07-29T00:42:02;99953.34;;;22.36;79.00
58072;BME280;60383;46.626;18.866;2023-07-29T00:44:28;99954.97;;;22.31;79.52
58072;BME280;60383;46.626;18.866;2023-07-29T00:46:54;99952.66;;;22.28;80.02
58072;BME280;60383;46.626;18.866;2023-07-29T00:49:21;99954.84;;;22.26;79.95
58072;BME280;60383;46.626;18.866;2023-07-29T00:51:47;99954.72;;;22.21;79.63
58072;BME280;60383;46.626;18.866;2023-07-29T00:54:13;99950.97;;;22.27;79.61
58072;BME280;60383;46.626;18.866;2023-07-29T00:56:39;99950.00;;;22.33;78.86
58072;BME280;60383;46.626;18.866;2023-07-29T00:59:05;99953.34;;;22.47;80.67
58072;BME280;60383;46.626;18.866;2023-07-29T01:01:31;99952.06;;;22.67;82.45
58072;BME280;60383;46.626;18.866;2023-07-29T01:03:57;99956.03;;;22.30;83.54
58072;BME280;60383;46.626;18.866;2023-07-29T01:06:48;99953.00;;;22.32;84.04
58072;BME280;60383;46.626;18.866;2023-07-29T01:09:41;99945.03;;;22.24;82.77
58072;BME280;60383;46.626;18.866;2023-07-29T01:12:28;99951.47;;;22.12;81.99
58072;BME280;60383;46.626;18.866;2023-07-29T01:15:04;99948.94;;;22.11;82.42
58072;BME280;60383;46.626;18.866;2023-07-29T01:17:51;99943.63;;;21.97;82.45
58072;BME280;60383;46.626;18.866;2023-07-29T01:20:19;99955.03;;;21.84;81.63
58072;BME280;60383;46.626;18.866;2023-07-29T01:22:46;99950.28;;;22.20;82.56
58072;BME280;60383;46.626;18.866;2023-07-29T01:25:13;99949.81;;;21.99;83.31
58072;BME280;60383;46.626;18.866;2023-07-29T01:27:40;99951.38;;;21.95;82.69
58072;BME280;60383;46.626;18.866;2023-07-29T01:30:06;99950.56;;;21.95;81.25
58072;BME280;60383;46.626;18.866;2023-07-29T01:38:29;99954.31;;;21.65;81.24
58072;BME280;60383;46.626;18.866;2023-07-29T01:41:01;99951.06;;;21.68;81.44
58072;BME280;60383;46.626;18.866;2023-07-29T01:43:28;99954.78;;;21.74;81.47
58072;BME280;60383;46.626;18.866;2023-07-29T01:45:54;99949.47;;;21.84;81.28
58072;BME280;60383;46.626;18.866;2023-07-29T01:48:19;99952.97;;;21.79;81.51
58072;BME280;60383;46.626;18.866;2023-07-29T01:50:45;99955.41;;;21.76;81.58
58072;BME280;60383;46.626;18.866;2023-07-29T01:53:10;99951.16;;;21.61;82.54
58072;BME280;60383;46.626;18.866;2023-07-29T01:55:36;99949.22;;;21.50;83.24
58072;BME280;60383;46.626;18.866;2023-07-29T01:58:01;99950.28;;;21.37;84.35
58072;BME280;60383;46.626;18.866;2023-07-29T02:00:27;99946.16;;;21.39;84.19
58072;BME280;60383;46.626;18.866;2023-07-29T02:02:52;99950.25;;;21.25;84.20
58072;BME280;60383;46.626;18.866;2023-07-29T02:05:18;99948.94;;;21.16;84.82
58072;BME280;60383;46.626;18.866;2023-07-29T02:07:43;99949.31;;;21.31;84.47
58072;BME280;60383;46.626;18.866;2023-07-29T02:10:09;99942.91;;;21.43;84.37
58072;BME280;60383;46.626;18.866;2023-07-29T02:12:34;99948.09;;;21.39;85.28
58072;BME280;60383;46.626;18.866;2023-07-29T02:15:00;99950.78;;;21.34;85.62
58072;BME280;60383;46.626;18.866;2023-07-29T02:17:25;99952.09;;;21.19;86.01
58072;BME280;60383;46.626;18.866;2023-07-29T02:19:51;99950.34;;;21.06;86.58
58072;BME280;60383;46.626;18.866;2023-07-29T02:22:17;99960.53;;;21.13;86.10
58072;BME280;60383;46.626;18.866;2023-07-29T02:24:44;99954.75;;;21.26;85.98
58072;BME280;60383;46.626;18.866;2023-07-29T02:27:10;99963.66;;;21.04;86.90
58072;BME280;60383;46.626;18.866;2023-07-29T02:29:35;99965.84;;;21.02;87.12
58072;BME280;60383;46.626;18.866;2023-07-29T02:32:02;99968.53;;;21.21;84.37
58072;BME280;60383;46.626;18.866;2023-07-29T02:34:28;99962.00;;;21.27;83.93
58072;BME280;60383;46.626;18.866;2023-07-29T02:36:53;99957.88;;;21.18;82.98
58072;BME280;60383;46.626;18.866;2023-07-29T02:39:19;99970.00;;;21.23;82.43
58072;BME280;60383;46.626;18.866;2023-07-29T02:41:44;99969.38;;;21.21;81.98
58072;BME280;60383;46.626;18.866;2023-07-29T02:44:10;99969.13;;;21.11;82.14
58072;BME280;60383;46.626;18.866;2023-07-29T02:46:35;99975.03;;;21.03;82.90
58072;BME280;60383;46.626;18.866;2023-07-29T02:49:02;99973.44;;;20.95;83.30
58072;BME280;60383;46.626;18.866;2023-07-29T02:51:29;99969.59;;;20.96;82.40
58072;BME280;60383;46.626;18.866;2023-07-29T02:53:54;99964.84;;;20.97;82.27
58072;BME280;60383;46.626;18.866;2023-07-29T02:56:19;99971.41;;;21.02;82.01
58072;BME280;60383;46.626;18.866;2023-07-29T02:58:45;99972.28;;;21.15;81.14
58072;BME280;60383;46.626;18.866;2023-07-29T03:01:10;99966.31;;;20.99;81.98
58072;BME280;60383;46.626;18.866;2023-07-29T03:03:36;99966.47;;;20.74;83.54
58072;BME280;60383;46.626;18.866;2023-07-29T03:06:09;99971.13;;;20.92;82.80
58072;BME280;60383;46.626;18.866;2023-07-29T03:08:35;99969.22;;;21.04;82.08
58072;BME280;60383;46.626;18.866;2023-07-29T03:11:12;99965.44;;;20.87;82.79
58072;BME280;60383;46.626;18.866;2023-07-29T03:13:38;99972.88;;;20.74;83.07
58072;BME280;60383;46.626;18.866;2023-07-29T03:16:12;99978.84;;;20.78;82.73
58072;BME280;60383;46.626;18.866;2023-07-29T03:18:39;99974.59;;;20.76;82.29
58072;BME280;60383;46.626;18.866;2023-07-29T03:21:05;99973.31;;;20.90;81.03
58072;BME280;60383;46.626;18.866;2023-07-29T03:23:32;99978.13;;;20.83;81.01
58072;BME280;60383;46.626;18.866;2023-07-29T03:25:59;99979.03;;;20.77;81.13
58072;BME280;60383;46.626;18.866;2023-07-29T03:28:32;99979.53;;;20.73;80.66
58072;BME280;60383;46.626;18.866;2023-07-29T03:30:58;99982.00;;;20.82;80.16
58072;BME280;60383;46.626;18.866;2023-07-29T03:33:25;99976.75;;;20.73;80.13
58072;BME280;60383;46.626;18.866;2023-07-29T03:35:51;99977.41;;;20.87;80.89
58072;BME280;60383;46.626;18.866;2023-07-29T03:38:17;99977.19;;;20.89;80.64
58072;BME280;60383;46.626;18.866;2023-07-29T03:40:42;99971.38;;;20.90;79.80
58072;BME280;60383;46.626;18.866;2023-07-29T03:43:08;99983.72;;;20.95;79.75
58072;BME280;60383;46.626;18.866;2023-07-29T03:45:35;99983.63;;;21.01;78.68
58072;BME280;60383;46.626;18.866;2023-07-29T03:48:00;99980.59;;;21.03;78.71
58072;BME280;60383;46.626;18.866;2023-07-29T03:50:27;99974.19;;;21.02;78.58
58072;BME280;60383;46.626;18.866;2023-07-29T03:52:52;99979.81;;;21.14;77.63
58072;BME280;60383;46.626;18.866;2023-07-29T03:55:18;99984.41;;;21.20;77.69
58072;BME280;60383;46.626;18.866;2023-07-29T03:57:44;99988.88;;;21.10;77.78
58072;BME280;60383;46.626;18.866;2023-07-29T04:00:09;99988.75;;;21.16;77.35
58072;BME280;60383;46.626;18.866;2023-07-29T04:02:35;99988.16;;;21.26;76.99
58072;BME280;60383;46.626;18.866;2023-07-29T04:05:05;99985.16;;;21.28;76.72
58072;BME280;60383;46.626;18.866;2023-07-29T04:07:31;99984.06;;;21.41;76.10
58072;BME280;60383;46.626;18.866;2023-07-29T04:09:57;99992.53;;;21.46;76.16
58072;BME280;60383;46.626;18.866;2023-07-29T04:12:23;99993.56;;;21.63;74.77
58072;BME280;60383;46.626;18.866;2023-07-29T04:14:49;99996.47;;;21.68;74.60
58072;BME280;60383;46.626;18.866;2023-07-29T04:17:14;99997.47;;;21.74;74.46
58072;BME280;60383;46.626;18.866;2023-07-29T04:19:40;99991.38;;;21.77;73.98
58072;BME280;60383;46.626;18.866;2023-07-29T04:22:06;99997.09;;;21.70;74.16
58072;BME280;60383;46.626;18.866;2023-07-29T04:24:31;99992.47;;;21.88;73.70
58072;BME280;60383;46.626;18.866;2023-07-29T04:26:56;99995.41;;;21.81;74.34
58072;BME280;60383;46.626;18.866;2023-07-29T04:29:22;100005.09;;;21.67;74.66
58072;BME280;60383;46.626;18.866;2023-07-29T04:31:51;100003.13;;;21.67;74.66
58072;BME280;60383;46.626;18.866;2023-07-29T04:34:17;100008.84;;;21.73;75.41
58072;BME280;60383;46.626;18.866;2023-07-29T04:36:43;100016.38;;;21.84;74.37
58072;BME280;60383;46.626;18.866;2023-07-29T04:39:08;100013.94;;;21.76;73.99
58072;BME280;60383;46.626;18.866;2023-07-29T04:41:34;100016.72;;;21.88;73.84
58072;BME280;60383;46.626;18.866;2023-07-29T04:44:00;100023.50;;;22.04;73.50
58072;BME280;60383;46.626;18.866;2023-07-29T04:46:25;100019.63;;;22.16;72.98
58072;BME280;60383;46.626;18.866;2023-07-29T04:48:51;100026.16;;;22.22;71.95
58072;BME280;60383;46.626;18.866;2023-07-29T04:51:16;100029.19;;;22.32;71.30
58072;BME280;60383;46.626;18.866;2023-07-29T04:53:41;100028.69;;;22.47;70.52
58072;BME280;60383;46.626;18.866;2023-07-29T04:56:07;100023.47;;;22.39;70.95
58072;BME280;60383;46.626;18.866;2023-07-29T04:58:32;100027.13;;;22.40;71.02
58072;BME280;60383;46.626;18.866;2023-07-29T05:01:03;100020.31;;;22.47;70.60
58072;BME280;60383;46.626;18.866;2023-07-29T05:03:29;100013.16;;;22.28;70.63
58072;BME280;60383;46.626;18.866;2023-07-29T05:05:55;100025.66;;;22.37;71.70
58072;BME280;60383;46.626;18.866;2023-07-29T05:08:21;100021.66;;;22.45;71.92
58072;BME280;60383;46.626;18.866;2023-07-29T05:10:50;100025.66;;;22.37;70.93
58072;BME280;60383;46.626;18.866;2023-07-29T05:13:17;100032.06;;;22.38;71.06
58072;BME280;60383;46.626;18.866;2023-07-29T05:15:43;100032.81;;;22.45;71.41
58072;BME280;60383;46.626;18.866;2023-07-29T05:18:08;100041.78;;;22.47;71.15
58072;BME280;60383;46.626;18.866;2023-07-29T05:20:34;100040.72;;;22.48;70.07
58072;BME280;60383;46.626;18.866;2023-07-29T05:22:59;100050.38;;;22.45;70.76
58072;BME280;60383;46.626;18.866;2023-07-29T05:25:26;100049.53;;;22.33;71.04
58072;BME280;60383;46.626;18.866;2023-07-29T05:27:51;100043.38;;;22.31;70.78
58072;BME280;60383;46.626;18.866;2023-07-29T05:30:17;100046.66;;;22.40;71.12
58072;BME280;60383;46.626;18.866;2023-07-29T05:32:42;100050.97;;;22.36;71.33
58072;BME280;60383;46.626;18.866;2023-07-29T05:35:08;100055.84;;;22.52;70.79
58072;BME280;60383;46.626;18.866;2023-07-29T05:37:33;100049.97;;;22.77;69.52
58072;BME280;60383;46.626;18.866;2023-07-29T05:39:59;100048.81;;;22.90;69.42
58072;BME280;60383;46.626;18.866;2023-07-29T05:42:24;100047.28;;;23.11;68.18
58072;BME280;60383;46.626;18.866;2023-07-29T05:44:50;100054.91;;;23.16;68.40
58072;BME280;60383;46.626;18.866;2023-07-29T05:47:15;100057.34;;;23.12;68.61
58072;BME280;60383;46.626;18.866;2023-07-29T05:49:41;100056.00;;;23.15;68.73
58072;BME280;60383;46.626;18.866;2023-07-29T05:52:07;100058.94;;;23.08;69.20
58072;BME280;60383;46.626;18.866;2023-07-29T05:54:32;100053.41;;;23.25;68.52
58072;BME280;60383;46.626;18.866;2023-07-29T05:56:58;100063.59;;;23.32;68.59
58072;BME280;60383;46.626;18.866;2023-07-29T05:59:23;100061.59;;;23.44;68.21
58072;BME280;60383;46.626;18.866;2023-07-29T06:01:49;100060.75;;;23.60;68.06
58072;BME280;60383;46.626;18.866;2023-07-29T06:04:14;100061.75;;;23.54;68.25
58072;BME280;60383;46.626;18.866;2023-07-29T06:06:40;100064.16;;;23.63;68.58
58072;BME280;60383;46.626;18.866;2023-07-29T06:09:05;100062.03;;;23.53;69.14
58072;BME280;60383;46.626;18.866;2023-07-29T06:11:30;100066.00;;;23.74;68.77
58072;BME280;60383;46.626;18.866;2023-07-29T06:13:56;100061.69;;;23.83;67.69
58072;BME280;60383;46.626;18.866;2023-07-29T06:16:21;100055.34;;;23.71;68.00
58072;BME280;60383;46.626;18.866;2023-07-29T06:18:47;100063.22;;;23.91;68.04
58072;BME280;60383;46.626;18.866;2023-07-29T06:21:12;100070.22;;;24.28;66.83
58072;BME280;60383;46.626;18.866;2023-07-29T06:23:43;100070.81;;;24.30;66.61
58072;BME280;60383;46.626;18.866;2023-07-29T06:26:08;100070.13;;;24.39;66.15
58072;BME280;60383;46.626;18.866;2023-07-29T06:28:34;100066.22;;;24.40;66.74
58072;BME280;60383;46.626;18.866;2023-07-29T06:30:59;100067.63;;;24.21;67.26
58072;BME280;60383;46.626;18.866;2023-07-29T06:33:25;100075.94;;;23.82;67.13
58072;BME280;60383;46.626;18.866;2023-07-29T06:35:50;100073.03;;;24.11;68.10
58072;BME280;60383;46.626;18.866;2023-07-29T06:38:15;100075.84;;;24.11;68.20
58072;BME280;60383;46.626;18.866;2023-07-29T06:40:46;100068.38;;;24.16;68.18
58072;BME280;60383;46.626;18.866;2023-07-29T06:43:12;100072.94;;;24.22;67.96
58072;BME280;60383;46.626;18.866;2023-07-29T06:45:37;100071.84;;;24.23;67.08
58072;BME280;60383;46.626;18.866;2023-07-29T06:48:03;100078.34;;;24.46;65.97
58072;BME280;60383;46.626;18.866;2023-07-29T06:50:28;100068.84;;;24.30;66.10
58072;BME280;60383;46.626;18.866;2023-07-29T06:52:54;100074.72;;;24.68;65.83
58072;BME280;60383;46.626;18.866;2023-07-29T06:55:19;100075.63;;;24.96;64.50
58072;BME280;60383;46.626;18.866;2023-07-29T06:57:45;100080.41;;;24.73;65.57
58072;BME280;60383;46.626;18.866;2023-07-29T07:00:10;100076.75;;;24.95;63.55
58072;BME280;60383;46.626;18.866;2023-07-29T07:02:36;100071.38;;;25.15;64.20
58072;BME280;60383;46.626;18.866;2023-07-29T07:05:01;100066.38;;;25.45;63.75
58072;BME280;60383;46.626;18.866;2023-07-29T07:07:27;100062.66;;;25.66;62.11
58072;BME280;60383;46.626;18.866;2023-07-29T07:09:52;100067.94;;;25.08;64.27
58072;BME280;60383;46.626;18.866;2023-07-29T07:12:17;100079.88;;;24.98;64.33
58072;BME280;60383;46.626;18.866;2023-07-29T07:14:43;100057.22;;;25.55;63.45
58072;BME280;60383;46.626;18.866;2023-07-29T07:17:08;100069.28;;;25.88;59.94
58072;BME280;60383;46.626;18.866;2023-07-29T07:19:34;100061.03;;;26.08;61.48
58072;BME280;60383;46.626;18.866;2023-07-29T07:21:59;100054.19;;;26.37;61.13
58072;BME280;60383;46.626;18.866;2023-07-29T07:24:25;100068.31;;;26.52;59.77
58072;BME280;60383;46.626;18.866;2023-07-29T07:26:50;100062.00;;;25.92;61.26
58072;BME280;60383;46.626;18.866;2023-07-29T07:29:16;100065.22;;;25.41;62.09
58072;BME280;60383;46.626;18.866;2023-07-29T07:31:50;100064.84;;;25.59;63.39
58072;BME280;60383;46.626;18.866;2023-07-29T07:34:17;100068.09;;;26.16;61.01
58072;BME280;60383;46.626;18.866;2023-07-29T07:36:43;100070.91;;;26.59;60.98
58072;BME280;60383;46.626;18.866;2023-07-29T07:39:09;100073.84;;;26.85;58.13
58072;BME280;60383;46.626;18.866;2023-07-29T07:41:34;100068.88;;;27.13;57.08
58072;BME280;60383;46.626;18.866;2023-07-29T07:43:59;100071.09;;;27.05;57.28
58072;BME280;60383;46.626;18.866;2023-07-29T07:46:25;100064.38;;;27.12;56.79
58072;BME280;60383;46.626;18.866;2023-07-29T07:48:50;100063.59;;;27.32;56.46
58072;BME280;60383;46.626;18.866;2023-07-29T07:51:16;100063.50;;;27.06;57.64
58072;BME280;60383;46.626;18.866;2023-07-29T07:53:41;100064.09;;;27.08;57.89
58072;BME280;60383;46.626;18.866;2023-07-29T07:56:07;100066.13;;;27.33;55.35
58072;BME280;60383;46.626;18.866;2023-07-29T07:58:34;100063.09;;;27.45;53.98
58072;BME280;60383;46.626;18.866;2023-07-29T08:01:04;100067.00;;;27.54;53.84
58072;BME280;60383;46.626;18.866;2023-07-29T08:03:29;100072.59;;;27.39;56.71
58072;BME280;60383;46.626;18.866;2023-07-29T08:05:55;100069.84;;;27.85;53.39
58072;BME280;60383;46.626;18.866;2023-07-29T08:08:20;100067.28;;;27.84;54.07
58072;BME280;60383;46.626;18.866;2023-07-29T08:10:46;100074.59;;;28.00;52.64
58072;BME280;60383;46.626;18.866;2023-07-29T08:13:11;100070.41;;;28.08;53.22
58072;BME280;60383;46.626;18.866;2023-07-29T08:15:37;100065.91;;;28.12;52.97
58072;BME280;60383;46.626;18.866;2023-07-29T08:18:02;100069.56;;;28.08;53.64
58072;BME280;60383;46.626;18.866;2023-07-29T08:20:28;100061.13;;;28.18;53.16
58072;BME280;60383;46.626;18.866;2023-07-29T08:22:53;100065.03;;;28.27;55.14
58072;BME280;60383;46.626;18.866;2023-07-29T08:25:19;100066.13;;;28.42;53.59
58072;BME280;60383;46.626;18.866;2023-07-29T08:27:44;100063.56;;;28.50;53.71
58072;BME280;60383;46.626;18.866;2023-07-29T08:30:10;100056.50;;;28.58;53.15
58072;BME280;60383;46.626;18.866;2023-07-29T08:32:35;100056.75;;;28.67;52.24
58072;BME280;60383;46.626;18.866;2023-07-29T08:35:01;100054.22;;;28.71;51.12
58072;BME280;60383;46.626;18.866;2023-07-29T08:37:26;100050.94;;;28.32;51.83
58072;BME280;60383;46.626;18.866;2023-07-29T08:39:52;100039.63;;;28.48;50.78
58072;BME280;60383;46.626;18.866;2023-07-29T08:42:19;100044.09;;;28.69;50.55
58072;BME280;60383;46.626;18.866;2023-07-29T08:44:49;100051.13;;;28.57;50.83
58072;BME280;60383;46.626;18.866;2023-07-29T08:47:15;100047.16;;;28.63;50.25
58072;BME280;60383;46.626;18.866;2023-07-29T08:49:42;100039.72;;;28.98;50.34
58072;BME280;60383;46.626;18.866;2023-07-29T08:52:09;100039.06;;;29.16;49.70
58072;BME280;60383;46.626;18.866;2023-07-29T08:54:35;100037.00;;;29.32;49.20
58072;BME280;60383;46.626;18.866;2023-07-29T08:57:01;100034.97;;;29.38;48.51
58072;BME280;60383;46.626;18.866;2023-07-29T08:59:28;100036.81;;;29.58;48.66
58072;BME280;60383;46.626;18.866;2023-07-29T09:01:54;100036.44;;;29.70;48.12
58072;BME280;60383;46.626;18.866;2023-07-29T09:04:23;100028.03;;;29.65;48.13
58072;BME280;60383;46.626;18.866;2023-07-29T09:06:50;100031.50;;;29.86;47.79
58072;BME280;60383;46.626;18.866;2023-07-29T09:09:16;100028.72;;;29.81;49.04
58072;BME280;60383;46.626;18.866;2023-07-29T09:11:41;100024.38;;;30.23;46.84
58072;BME280;60383;46.626;18.866;2023-07-29T09:14:07;100022.78;;;29.83;46.51
58072;BME280;60383;46.626;18.866;2023-07-29T09:16:32;100013.84;;;29.36;47.44
58072;BME280;60383;46.626;18.866;2023-07-29T09:19:02;100010.47;;;29.28;47.78
58072;BME280;60383;46.626;18.866;2023-07-29T09:21:29;100011.72;;;29.91;46.99
58072;BME280;60383;46.626;18.866;2023-07-29T09:23:55;100008.31;;;29.94;46.69
58072;BME280;60383;46.626;18.866;2023-07-29T09:26:28;100004.03;;;29.62;47.32
58072;BME280;60383;46.626;18.866;2023-07-29T09:28:55;100007.97;;;30.25;46.63
58072;BME280;60383;46.626;18.866;2023-07-29T09:31:22;100003.84;;;30.42;45.92
58072;BME280;60383;46.626;18.866;2023-07-29T09:33:48;99994.31;;;30.81;45.61
58072;BME280;60383;46.626;18.866;2023-07-29T09:36:14;99996.66;;;30.74;45.51
58072;BME280;60383;46.626;18.866;2023-07-29T09:38:39;99990.94;;;30.98;43.80
58072;BME280;60383;46.626;18.866;2023-07-29T09:41:05;99991.13;;;31.26;43.08
58072;BME280;60383;46.626;18.866;2023-07-29T09:43:32;99993.50;;;31.38;44.90
58072;BME280;60383;46.626;18.866;2023-07-29T09:46:02;99990.41;;;30.96;44.93
58072;BME280;60383;46.626;18.866;2023-07-29T09:48:28;99987.19;;;31.41;44.55
58072;BME280;60383;46.626;18.866;2023-07-29T09:50:56;99992.47;;;31.67;42.62
58072;BME280;60383;46.626;18.866;2023-07-29T09:53:22;99989.34;;;31.82;42.68
58072;BME280;60383;46.626;18.866;2023-07-29T09:55:48;99986.47;;;31.35;45.29
58072;BME280;60383;46.626;18.866;2023-07-29T09:58:19;99985.91;;;31.72;42.77
58072;BME280;60383;46.626;18.866;2023-07-29T10:00:51;99977.31;;;31.91;43.01
58072;BME280;60383;46.626;18.866;2023-07-29T10:03:18;99982.91;;;32.10;42.31
58072;BME280;60383;46.626;18.866;2023-07-29T10:05:46;99969.94;;;32.23;42.65
58072;BME280;60383;46.626;18.866;2023-07-29T10:08:12;99973.16;;;32.16;41.67
58072;BME280;60383;46.626;18.866;2023-07-29T10:10:41;99971.31;;;32.25;41.28
58072;BME280;60383;46.626;18.866;2023-07-29T10:13:07;99971.47;;;32.15;42.64
58072;BME280;60383;46.626;18.866;2023-07-29T10:15:33;99970.75;;;32.09;41.53
58072;BME280;60383;46.626;18.866;2023-07-29T10:17:59;99970.06;;;32.31;42.24
58072;BME280;60383;46.626;18.866;2023-07-29T10:20:26;99968.78;;;32.38;40.98
58072;BME280;60383;46.626;18.866;2023-07-29T10:22:55;99967.63;;;32.39;40.67
58072;BME280;60383;46.626;18.866;2023-07-29T10:25:24;99958.56;;;31.62;42.45
58072;BME280;60383;46.626;18.866;2023-07-29T10:27:56;99969.63;;;30.68;43.52
58072;BME280;60383;46.626;18.866;2023-07-29T10:30:24;99974.63;;;30.27;46.48
58072;BME280;60383;46.626;18.866;2023-07-29T10:32:50;99974.69;;;30.22;46.91
58072;BME280;60383;46.626;18.866;2023-07-29T10:35:17;99971.72;;;30.08;45.94
58072;BME280;60383;46.626;18.866;2023-07-29T10:37:43;99977.31;;;30.38;48.83
58072;BME280;60383;46.626;18.866;2023-07-29T10:40:11;99973.53;;;30.91;46.29
58072;BME280;60383;46.626;18.866;2023-07-29T10:42:37;99972.09;;;30.74;43.98
58072;BME280;60383;46.626;18.866;2023-07-29T10:45:39;99979.19;;;30.91;43.97
58072;BME280;60383;46.626;18.866;2023-07-29T10:48:10;99984.66;;;31.59;41.40
58072;BME280;60383;46.626;18.866;2023-07-29T10:50:36;99977.19;;;31.82;41.24
58072;BME280;60383;46.626;18.866;2023-07-29T10:53:02;99977.84;;;31.60;45.71
58072;BME280;60383;46.626;18.866;2023-07-29T10:55:34;99971.63;;;31.77;45.53
58072;BME280;60383;46.626;18.866;2023-07-29T11:00:31;99971.34;;;31.92;43.11
58072;BME280;60383;46.626;18.866;2023-07-29T11:03:03;99968.44;;;31.64;42.22
58072;BME280;60383;46.626;18.866;2023-07-29T11:08:28;99967.50;;;32.44;40.13
58072;BME280;60383;46.626;18.866;2023-07-29T11:13:29;99964.06;;;32.33;39.85
58072;BME280;60383;46.626;18.866;2023-07-29T11:15:56;99968.81;;;31.91;43.07
58072;BME280;60383;46.626;18.866;2023-07-29T11:18:26;99968.25;;;32.36;40.37
58072;BME280;60383;46.626;18.866;2023-07-29T11:20:53;99967.47;;;31.88;41.51
58072;BME280;60383;46.626;18.866;2023-07-29T11:23:19;99967.78;;;31.86;41.71
58072;BME280;60383;46.626;18.866;2023-07-29T11:25:45;99960.22;;;31.96;40.77
58072;BME280;60383;46.626;18.866;2023-07-29T11:28:10;99966.56;;;31.41;42.59
58072;BME280;60383;46.626;18.866;2023-07-29T11:30:39;99956.75;;;31.71;42.33
58072;BME280;60383;46.626;18.866;2023-07-29T11:33:04;99948.66;;;30.50;42.20
58072;BME280;60383;46.626;18.866;2023-07-29T11:35:32;99948.78;;;31.73;42.66
58072;BME280;60383;46.626;18.866;2023-07-29T11:37:57;99950.53;;;32.44;37.98
58072;BME280;60383;46.626;18.866;2023-07-29T11:40:23;99948.31;;;32.55;38.15
58072;BME280;60383;46.626;18.866;2023-07-29T11:42:52;99950.91;;;32.65;37.71
58072;BME280;60383;46.626;18.866;2023-07-29T11:45:18;99959.69;;;31.80;39.48
58072;BME280;60383;46.626;18.866;2023-07-29T11:47:45;99955.34;;;32.43;37.88
58072;BME280;60383;46.626;18.866;2023-07-29T11:50:12;99954.66;;;31.44;40.91
58072;BME280;60383;46.626;18.866;2023-07-29T11:52:45;99957.53;;;32.18;38.51
58072;BME280;60383;46.626;18.866;2023-07-29T11:55:12;99945.38;;;32.46;38.37
58072;BME280;60383;46.626;18.866;2023-07-29T11:57:39;99950.59;;;31.64;38.33
58072;BME280;60383;46.626;18.866;2023-07-29T12:00:09;99949.78;;;32.38;37.94
58072;BME280;60383;46.626;18.866;2023-07-29T12:02:42;99941.31;;;32.24;38.57
58072;BME280;60383;46.626;18.866;2023-07-29T12:05:12;99949.00;;;31.77;39.10
58072;BME280;60383;46.626;18.866;2023-07-29T12:07:39;99951.72;;;31.82;38.87
58072;BME280;60383;46.626;18.866;2023-07-29T12:10:05;99935.44;;;32.21;38.66
58072;BME280;60383;46.626;18.866;2023-07-29T12:12:31;99933.34;;;32.26;39.47
58072;BME280;60383;46.626;18.866;2023-07-29T12:14:57;99935.63;;;32.24;40.09
58072;BME280;60383;46.626;18.866;2023-07-29T12:17:22;99943.81;;;30.55;41.72
58072;BME280;60383;46.626;18.866;2023-07-29T12:19:48;99950.28;;;30.56;42.11
58072;BME280;60383;46.626;18.866;2023-07-29T12:22:18;99943.56;;;30.27;42.33
58072;BME280;60383;46.626;18.866;2023-07-29T12:24:43;99936.41;;;30.11;43.74
58072;BME280;60383;46.626;18.866;2023-07-29T12:27:13;99932.63;;;30.21;43.65
58072;BME280;60383;46.626;18.866;2023-07-29T12:29:43;99931.03;;;29.85;44.07
58072;BME280;60383;46.626;18.866;2023-07-29T12:32:09;99926.91;;;29.48;46.00
58072;BME280;60383;46.626;18.866;2023-07-29T12:34:36;99927.75;;;29.48;45.68
58072;BME280;60383;46.626;18.866;2023-07-29T12:37:03;99924.78;;;29.93;46.03
58072;BME280;60383;46.626;18.866;2023-07-29T12:39:33;99919.16;;;29.88;46.06
58072;BME280;60383;46.626;18.866;2023-07-29T12:42:00;99922.25;;;29.87;44.06
58072;BME280;60383;46.626;18.866;2023-07-29T12:44:34;99913.16;;;30.19;44.09
58072;BME280;60383;46.626;18.866;2023-07-29T12:47:03;99912.81;;;30.69;42.36
58072;BME280;60383;46.626;18.866;2023-07-29T12:49:29;99916.00;;;31.20;42.67
58072;BME280;60383;46.626;18.866;2023-07-29T12:51:59;99909.34;;;31.30;42.16
58072;BME280;60383;46.626;18.866;2023-07-29T12:54:24;99909.84;;;31.51;41.91
58072;BME280;60383;46.626;18.866;2023-07-29T12:56:50;99910.56;;;31.57;40.54